Time;durP1;ratioP1;P1;durP2;ratioP2;P2;SDS_P1;SDS_P2;PMS_P1;PMS_P2;Temp;Humidity;BMP_temperature;BMP_pressure;BME280_temperature;BME280_humidity;BME280_pressure;Samples;Min_cycle;Max_cycle;Signal;HPM_P1;HPM_P2
2023/02/15 00:00:10;;;;;;;46.17;21.23;;;1.70;99.90;;;5.18;54.45;98908.28;5030571;28;20046;-48
2023/02/15 00:02:39;;;;;;;47.17;22.50;;;1.70;99.90;;;5.20;54.00;98906.38;5030533;28;20041;-45
2023/02/15 00:05:08;;;;;;;48.10;24.93;;;1.70;99.90;;;5.20;54.64;98903.75;5029712;28;20056;-46
2023/02/15 00:07:35;;;;;;;45.60;22.57;;;1.70;99.90;;;5.21;54.38;98900.13;5026670;28;20048;-45
2023/02/15 00:10:04;;;;;;;45.57;23.67;;;1.80;99.90;;;5.23;54.60;98895.59;5032925;28;20044;-45
2023/02/15 00:12:32;;;;;;;43.07;23.50;;;1.80;99.90;;;5.25;54.23;98890.25;5033190;28;20531;-45
2023/02/15 00:14:59;;;;;;;46.33;22.60;;;1.80;99.90;;;5.26;54.53;98891.94;5034831;28;20452;-47
2023/02/15 00:17:28;;;;;;;46.00;24.57;;;1.80;99.90;;;5.30;54.64;98894.28;5034356;28;20046;-47
2023/02/15 00:19:55;;;;;;;40.03;18.80;;;1.80;99.90;;;5.31;54.18;98888.06;5033220;28;20056;-45
2023/02/15 00:22:23;;;;;;;43.83;23.13;;;1.80;99.90;;;5.33;54.25;98894.09;5034307;28;20053;-48
2023/02/15 00:24:50;;;;;;;40.07;21.90;;;1.80;99.90;;;5.35;54.20;98895.78;5034253;28;20412;-47
2023/02/15 00:27:18;;;;;;;40.13;20.73;;;1.80;99.90;;;5.38;54.07;98887.69;5041271;28;20053;-44
2023/02/15 00:29:47;;;;;;;42.30;21.40;;;1.80;99.90;;;5.39;54.07;98882.31;5032980;28;20049;-49
2023/02/15 00:32:15;;;;;;;42.00;22.40;;;1.90;99.90;;;5.40;54.13;98888.41;5034391;28;20049;-46
2023/02/15 00:34:43;;;;;;;40.23;20.53;;;1.90;99.90;;;5.40;54.26;98896.34;5033903;28;20053;-46
2023/02/15 00:37:10;;;;;;;38.13;19.77;;;1.90;99.90;;;5.41;54.27;98893.63;5032839;28;20203;-48
2023/02/15 00:39:38;;;;;;;47.67;23.33;;;1.90;99.90;;;5.44;54.10;98898.69;5025370;28;20041;-45
2023/02/15 00:42:06;;;;;;;41.23;21.87;;;1.90;99.90;;;5.44;54.35;98895.19;5034270;28;20036;-48
2023/02/15 00:44:33;;;;;;;44.77;24.50;;;1.90;99.90;;;5.43;53.79;98896.13;5031929;28;20420;-49
2023/02/15 00:47:01;;;;;;;51.00;22.93;;;1.90;99.90;;;5.39;54.12;98889.34;5032698;28;20057;-47
2023/02/15 00:49:28;;;;;;;40.17;20.50;;;1.80;99.90;;;5.35;54.04;98891.38;5032345;28;20418;-48
2023/02/15 00:51:56;;;;;;;45.77;21.53;;;1.80;99.90;;;5.35;53.71;98891.38;5033747;28;20041;-47
2023/02/15 00:54:23;;;;;;;51.07;23.13;;;1.80;99.90;;;5.31;53.90;98887.19;5033543;28;20501;-47
2023/02/15 00:56:51;;;;;;;47.20;21.40;;;1.70;99.90;;;5.26;54.01;98887.50;5032451;28;20558;-49
2023/02/15 00:59:18;;;;;;;51.23;22.87;;;1.60;99.90;;;5.26;54.13;98882.22;5033660;28;20049;-47
2023/02/15 01:01:47;;;;;;;53.27;22.83;;;1.60;99.90;;;5.23;53.88;98886.84;5033590;28;20511;-46
2023/02/15 01:04:15;;;;;;;54.70;22.63;;;1.60;99.90;;;5.21;54.16;98886.94;5029907;28;20045;-48
2023/02/15 01:06:43;;;;;;;186.37;37.40;;;1.60;99.90;;;5.21;53.99;98873.72;5031534;28;20053;-48
2023/02/15 01:09:12;;;;;;;144.67;34.17;;;1.60;99.90;;;5.18;54.08;98881.03;5032136;28;20057;-49
2023/02/15 01:11:39;;;;;;;103.53;30.43;;;1.50;99.90;;;5.13;54.44;98882.13;5024381;28;20053;-49
2023/02/15 01:14:07;;;;;;;82.97;26.23;;;1.50;99.90;;;5.13;54.29;98874.22;5031482;28;20088;-46
2023/02/15 01:16:38;;;;;;;77.03;24.80;;;1.50;99.90;;;5.12;53.64;98879.63;5032969;28;20049;-47
2023/02/15 01:19:06;;;;;;;65.63;20.60;;;1.50;99.90;;;5.08;53.76;98892.16;5033574;28;20038;-45
2023/02/15 01:21:34;;;;;;;89.97;24.43;;;1.50;99.90;;;5.07;53.90;98885.16;5033193;28;20049;-47
2023/02/15 01:24:03;;;;;;;71.13;21.13;;;1.50;99.90;;;5.04;53.83;98885.38;5031791;28;20037;-44
2023/02/15 01:26:30;;;;;;;33.40;17.73;;;1.40;99.90;;;5.04;53.98;98885.38;5031939;28;20401;-45
2023/02/15 01:28:58;;;;;;;63.93;22.07;;;1.50;99.90;;;5.02;54.04;98892.56;5031811;28;20394;-46
2023/02/15 01:31:26;;;;;;;80.03;20.87;;;1.50;99.90;;;5.00;54.07;98883.88;5033324;28;20485;-46
2023/02/15 01:33:54;;;;;;;53.97;18.93;;;1.40;99.90;;;4.97;54.07;98891.13;5032809;28;20048;-48
2023/02/15 01:36:21;;;;;;;110.80;41.63;;;1.40;99.90;;;4.94;54.53;98884.25;5031380;28;20068;-51
2023/02/15 01:38:49;;;;;;;64.40;24.03;;;1.30;99.90;;;4.90;54.20;98891.53;5023634;28;20057;-44
2023/02/15 01:41:19;;;;;;;49.30;20.50;;;1.20;99.90;;;4.91;54.04;98884.44;5033165;28;20425;-48
2023/02/15 01:43:50;;;;;;;43.03;20.37;;;1.30;99.90;;;4.90;54.41;98886.25;5032426;28;20042;-47
2023/02/15 01:46:24;;;;;;;76.50;22.83;;;1.30;99.90;;;4.90;54.17;98888.88;5033594;28;20056;-46
2023/02/15 01:49:02;;;;;;;54.60;17.35;;;1.30;99.90;;;4.88;54.03;98874.91;5023274;28;20056;-48
2023/02/15 01:51:34;;;;;;;70.17;19.17;;;1.30;99.90;;;4.85;53.90;98877.75;5031675;28;20455;-46
2023/02/15 01:54:16;;;;;;;40.67;17.20;;;1.20;99.90;;;4.81;54.23;98872.75;5023227;28;20049;-51
2023/02/15 01:56:44;;;;;;;35.67;14.63;;;1.20;99.90;;;4.82;54.43;98871.81;5023955;28;20420;-45
2023/02/15 01:59:19;;;;;;;62.27;15.23;;;1.20;99.90;;;4.79;54.60;98872.00;5015621;28;20060;-45
2023/02/15 02:01:52;;;;;;;78.03;20.43;;;1.20;99.90;;;4.78;53.96;98884.34;5024829;28;20029;-48
2023/02/15 02:04:41;;;;;;;45.73;14.17;;;1.10;99.90;;;4.69;53.91;98888.41;5014670;28;20421;-48
2023/02/15 02:07:12;;;;;;;33.40;13.10;;;1.10;99.90;;;4.59;54.22;98883.78;5031612;28;20054;-44
2023/02/15 02:09:40;;;;;;;30.10;13.03;;;0.90;99.90;;;4.45;54.67;98877.53;5038860;28;20045;-49
2023/02/15 02:12:09;;;;;;;47.23;15.23;;;0.70;99.90;;;4.41;54.35;98877.84;5015359;28;20440;-47
2023/02/15 02:14:40;;;;;;;47.10;15.93;;;0.60;99.90;;;4.31;54.39;98867.84;5032080;28;20041;-45
2023/02/15 02:17:39;;;;;;;75.77;15.80;;;0.50;99.90;;;4.24;54.30;98868.28;5014677;28;20046;-45
2023/02/15 02:20:38;;;;;;;36.77;15.10;;;0.60;99.90;;;4.25;54.38;98865.56;5027369;28;20052;-47
2023/02/15 02:23:36;;;;;;;34.80;14.97;;;0.60;99.90;;;4.26;54.77;98861.97;5025903;28;20382;-47
2023/02/15 02:26:38;;;;;;;37.10;14.03;;;0.70;99.90;;;4.33;54.55;98865.94;5022901;28;20048;-44
2023/02/15 02:29:59;;;;;;;59.70;16.50;;;0.80;99.90;;;4.25;55.01;98864.72;5026467;28;20037;-46
2023/02/15 02:33:17;;;;;;;43.10;14.87;;;0.70;99.90;;;4.20;54.68;98859.72;5028745;28;20060;-46
2023/02/15 02:36:41;;;;;;;32.77;12.43;;;0.70;99.90;;;4.14;54.37;98858.28;5022383;28;20057;-48
2023/02/15 02:39:33;;;;;;;36.57;13.13;;;0.60;99.90;;;4.13;54.53;98859.25;5012927;28;20570;-48
2023/02/15 02:42:16;;;;;;;71.30;17.73;;;0.60;99.90;;;4.16;54.76;98860.00;5024613;28;20038;-45
2023/02/15 02:45:01;;;;;;;58.33;15.47;;;0.60;99.90;;;4.17;54.95;98856.41;5022421;28;20132;-45
2023/02/15 02:47:53;;;;;;;83.77;14.63;;;0.60;99.90;;;4.12;55.16;98849.63;5030685;28;20544;-47
2023/02/15 02:50:27;;;;;;;33.05;14.50;;;0.60;99.90;;;4.20;54.74;98843.06;5030383;28;20408;-50
2023/02/15 02:52:58;;;;;;;31.87;14.20;;;0.60;99.90;;;4.23;55.07;98841.09;5031321;28;20057;-48
2023/02/15 02:55:51;;;;;;;51.20;14.40;;;0.70;99.90;;;4.23;55.00;98846.34;5030616;28;20045;-47
2023/02/15 02:58:48;;;;;;;72.90;18.23;;;0.70;99.90;;;4.21;54.79;98834.22;5023689;28;20052;-46
2023/02/15 03:01:24;;;;;;;44.30;13.53;;;0.70;99.90;;;4.29;55.24;98842.50;5030374;28;20408;-45
2023/02/15 03:04:02;;;;;;;27.13;14.30;;;0.80;99.90;;;4.35;54.73;98836.88;5021843;28;20046;-48
2023/02/15 03:06:58;;;;;;;22.90;12.50;;;0.80;99.90;;;4.34;55.22;98827.25;5022214;28;20045;-46
2023/02/15 03:09:53;;;;;;;27.93;13.77;;;0.90;99.90;;;4.37;54.85;98837.63;5022827;28;20053;-46
2023/02/15 03:12:28;;;;;;;38.17;16.73;;;0.90;99.90;;;4.48;55.27;98834.34;5030268;28;20058;-45
2023/02/15 03:15:14;;;;;;;47.47;16.33;;;0.90;99.90;;;4.49;54.78;98843.94;5029752;28;20049;-45
2023/02/15 03:17:48;;;;;;;38.53;15.90;;;0.90;99.90;;;4.51;54.94;98844.69;5022995;28;20052;-46
2023/02/15 03:20:32;;;;;;;54.10;16.60;;;0.90;99.90;;;4.51;54.84;98844.69;5030053;28;20068;-48
2023/02/15 03:23:10;;;;;;;26.70;14.40;;;0.90;99.90;;;4.51;54.45;98840.25;5017304;28;20038;-45
2023/02/15 03:25:43;;;;;;;54.33;14.93;;;1.00;99.90;;;4.48;54.74;98832.53;5029561;28;20124;-45
2023/02/15 03:28:19;;;;;;;;;;;0.90;99.90;;;4.39;54.87;98829.63;5022932;28;20045;-46
2023/02/15 03:30:53;;;;;;;46.10;13.27;;;0.90;99.90;;;4.48;54.48;98834.34;5022178;28;19943;-49
2023/02/15 03:33:23;;;;;;;37.07;13.23;;;0.80;99.90;;;4.48;54.91;98837.81;5013605;28;20060;-47
2023/02/15 03:36:20;;;;;;;60.97;16.30;;;0.80;99.90;;;4.41;55.02;98836.47;5023683;28;20045;-47
2023/02/15 03:39:07;;;;;;;47.60;16.20;;;0.80;99.90;;;4.46;54.37;98833.56;5029966;28;20493;-46
2023/02/15 03:41:45;;;;;;;23.30;13.00;;;0.80;99.90;;;4.41;55.08;98833.00;5029464;28;20057;-48
2023/02/15 03:44:30;;;;;;;22.40;12.90;;;0.80;99.90;;;4.41;54.99;98833.84;5029761;28;20041;-43
2023/02/15 03:47:17;;;;;;;32.70;13.63;;;0.80;99.90;;;4.40;55.27;98833.94;5023327;28;20564;-46
2023/02/15 03:51:33;;;;;;;33.80;14.10;;;0.80;99.90;;;4.41;55.02;98844.41;5030994;28;20052;-49
2023/02/15 03:53:01;;;;;;;28.13;12.57;;;0.80;99.90;;;4.41;55.19;98838.28;5029560;28;20041;-46
2023/02/15 03:55:29;;;;;;;33.33;12.80;;;0.80;99.90;;;4.37;55.12;98844.69;5029854;28;20049;-49
2023/02/15 04:03:59;;;;;;;23.20;12.47;;;0.70;99.90;;;4.40;54.79;98836.56;5030405;28;20045;-46
2023/02/15 04:06:27;;;;;;;33.00;14.23;;;0.80;99.90;;;4.41;54.98;98833.84;5028066;28;20041;-49
2023/02/15 04:11:41;;;;;;;29.50;14.07;;;0.80;99.90;;;4.41;54.53;98835.66;5030856;28;20425;-45
2023/02/15 04:16:54;;;;;;;32.60;15.40;;;0.80;99.90;;;4.39;54.68;98832.25;5023475;28;20057;-45
2023/02/15 04:25:11;;;;;;;28.63;14.03;;;0.80;99.90;;;4.36;54.63;98813.97;5022863;28;20042;-48
2023/02/15 04:27:43;;;;;;;27.05;13.13;;;0.80;99.90;;;4.32;55.06;98811.53;5030633;28;20048;-47
2023/02/15 04:30:12;;;;;;;17.77;10.90;;;0.70;99.90;;;4.33;54.69;98813.22;5030603;28;20049;-50
2023/02/15 04:32:40;;;;;;;24.73;11.63;;;0.70;99.90;;;4.31;54.45;98809.00;5029180;28;20271;-47
2023/02/15 04:35:09;;;;;;;18.90;10.87;;;0.70;99.90;;;4.26;54.44;98811.88;5029101;28;20479;-50
2023/02/15 04:37:38;;;;;;;21.57;11.43;;;0.60;99.90;;;4.27;54.89;98804.84;5029953;28;20050;-49
2023/02/15 04:40:08;;;;;;;26.47;11.43;;;0.50;99.90;;;4.25;55.34;98807.56;5030501;28;20050;-46
2023/02/15 04:42:35;;;;;;;25.73;11.17;;;0.50;99.90;;;4.26;54.25;98808.41;5030201;28;20148;-45
2023/02/15 04:45:04;;;;;;;18.90;10.70;;;0.50;99.90;;;4.26;54.29;98811.03;5037178;28;20048;-47
2023/02/15 04:47:32;;;;;;;46.33;12.93;;;0.50;99.90;;;4.28;54.29;98823.19;5030546;28;20436;-44
2023/02/15 04:49:59;;;;;;;28.00;12.07;;;0.60;99.90;;;4.25;54.29;98814.63;5030216;28;20045;-46
2023/02/15 04:52:27;;;;;;;20.73;11.07;;;0.60;99.90;;;4.27;54.25;98818.03;5031369;28;20473;-46
2023/02/15 04:54:55;;;;;;;67.50;16.30;;;0.60;99.90;;;4.25;54.62;98819.91;5033580;28;20049;-49
2023/02/15 04:57:23;;;;;;;37.00;13.23;;;0.50;99.90;;;4.22;54.07;98820.94;5033844;28;20053;-46
2023/02/15 04:59:50;;;;;;;27.80;11.93;;;0.50;99.90;;;4.13;53.98;98813.59;5033721;28;20046;-44
2023/02/15 05:02:18;;;;;;;41.50;13.87;;;0.40;99.90;;;4.09;53.89;98812.06;5033872;28;20052;-45
2023/02/15 05:04:45;;;;;;;28.77;13.27;;;0.40;99.90;;;4.08;54.47;98802.47;5033308;28;20144;-46
2023/02/15 05:07:14;;;;;;;26.47;12.77;;;0.40;99.90;;;4.08;54.51;98805.09;5033826;28;20050;-46
2023/02/15 05:09:42;;;;;;;33.10;11.97;;;0.40;99.90;;;4.06;54.31;98807.81;5033716;28;20046;-46
2023/02/15 05:12:09;;;;;;;26.83;12.77;;;0.40;99.90;;;4.05;54.85;98808.78;5033748;28;20056;-46
2023/02/15 05:14:37;;;;;;;27.10;12.77;;;0.40;99.90;;;4.06;54.66;98806.97;5033279;28;20049;-46
2023/02/15 05:17:05;;;;;;;38.37;16.40;;;0.50;99.90;;;4.07;54.36;98813.94;5033475;28;20049;-47
2023/02/15 05:19:32;;;;;;;63.27;14.70;;;0.50;99.90;;;4.08;54.10;98818.28;5033095;28;20048;-45
2023/02/15 05:22:00;;;;;;;31.43;13.03;;;0.50;99.90;;;4.04;54.26;98814.97;5033690;28;20038;-45
2023/02/15 05:30:00;;;;;;;37.00;13.73;;;0.50;99.90;;;3.98;55.29;98806.59;5026025;28;20049;-46
2023/02/15 05:32:28;;;;;;;25.93;12.53;;;0.50;99.90;;;4.00;54.81;98797.66;5033556;28;20436;-44
2023/02/15 05:34:55;;;;;;;25.13;13.73;;;0.50;99.90;;;3.97;55.41;98804.88;5032911;28;20044;-46
2023/02/15 05:37:23;;;;;;;36.13;15.27;;;0.40;99.90;;;3.94;55.23;98809.41;5033318;28;20049;-46
2023/02/15 05:39:50;;;;;;;60.30;17.30;;;0.40;99.90;;;3.91;54.97;98814.00;5031555;28;20049;-45
2023/02/15 05:42:18;;;;;;;34.73;15.03;;;0.30;99.90;;;3.90;54.87;98810.53;5033228;28;20417;-46
2023/02/15 05:44:45;;;;;;;37.80;12.90;;;0.30;99.90;;;3.91;54.88;98812.22;5032862;28;20037;-47
2023/02/15 05:47:13;;;;;;;19.50;10.43;;;0.30;99.90;;;3.93;55.12;98806.84;5033196;28;20048;-48
2023/02/15 05:49:40;;;;;;;24.60;12.43;;;0.30;99.90;;;3.92;55.15;98800.75;5040023;28;20053;-45
2023/02/15 05:52:08;;;;;;;32.63;12.73;;;0.30;99.90;;;3.93;54.85;98809.50;5032917;28;20056;-44
2023/02/15 05:54:35;;;;;;;22.00;11.93;;;0.30;99.90;;;3.90;54.58;98810.53;5032802;28;20060;-46
2023/02/15 05:57:03;;;;;;;33.70;14.47;;;0.30;99.90;;;3.91;54.66;98814.84;5031388;28;20056;-47
2023/02/15 05:59:30;;;;;;;22.83;10.63;;;0.30;99.90;;;3.94;54.94;98805.94;5032529;28;20052;-44
2023/02/15 06:01:58;;;;;;;26.70;12.33;;;0.30;99.90;;;3.94;54.95;98806.78;5032730;28;20034;-44
2023/02/15 06:04:26;;;;;;;20.37;12.70;;;0.30;99.90;;;3.92;55.14;98813.91;5032029;28;20072;-47
2023/02/15 06:06:53;;;;;;;51.70;17.37;;;0.30;99.90;;;3.92;54.85;98813.91;5032780;28;20042;-46
2023/02/15 06:09:21;;;;;;;27.27;15.73;;;0.40;99.90;;;3.91;54.82;98814.00;5038973;28;20048;-47
2023/02/15 06:11:48;;;;;;;39.30;16.20;;;0.30;99.90;;;3.92;54.32;98818.34;5032575;28;20112;-45
2023/02/15 06:14:16;;;;;;;30.33;17.10;;;0.30;99.90;;;3.89;54.99;98819.34;5030761;28;20532;-47
2023/02/15 06:16:44;;;;;;;32.07;18.63;;;0.30;99.90;;;3.90;54.92;98820.22;5032239;28;20049;-46
2023/02/15 06:19:11;;;;;;;24.97;15.53;;;0.30;99.90;;;3.87;54.29;98821.25;5032457;28;20057;-45
2023/02/15 06:21:39;;;;;;;26.37;12.87;;;0.30;99.90;;;3.88;54.25;98819.47;5032265;28;20046;-44
2023/02/15 06:24:08;;;;;;;30.77;11.77;;;0.20;99.90;;;3.87;54.46;98825.66;5031829;28;20667;-48
2023/02/15 06:26:36;;;;;;;24.00;10.83;;;0.20;99.90;;;3.81;54.56;98833.94;5032610;28;20041;-45
2023/02/15 06:29:04;;;;;;;23.07;11.67;;;0.10;99.90;;;3.73;54.71;98831.75;5032129;28;20041;-46
2023/02/15 06:31:31;;;;;;;17.87;11.37;;;0.10;99.90;;;3.73;54.47;98834.38;5031981;28;20121;-47
2023/02/15 06:34:02;;;;;;;28.30;13.20;;;0.10;99.90;;;3.71;53.97;98838.88;5032327;28;20417;-45
2023/02/15 06:36:31;;;;;;;27.70;13.77;;;0.10;99.90;;;3.68;54.59;98831.16;5032174;28;20052;-48
2023/02/15 06:38:59;;;;;;;36.63;13.60;;;0.10;99.90;;;3.69;54.20;98832.88;5024545;28;20048;-44
2023/02/15 06:41:26;;;;;;;40.17;12.93;;;0.10;99.90;;;3.64;53.91;98838.38;5030209;28;20053;-46
2023/02/15 06:43:54;;;;;;;33.50;13.73;;;0.00;99.90;;;3.64;54.07;98834.91;5031359;28;20034;-43
2023/02/15 06:46:21;;;;;;;29.50;12.53;;;0.00;99.90;;;3.63;54.17;98841.13;5031615;28;20053;-46
2023/02/15 06:48:49;;;;;;;43.80;14.47;;;0.00;99.90;;;3.65;54.45;98844.53;5032240;28;20048;-46
2023/02/15 06:51:16;;;;;;;31.27;12.10;;;0.00;99.90;;;3.67;54.60;98843.47;5039151;28;20049;-46
2023/02/15 06:53:44;;;;;;;28.63;14.57;;;0.00;99.90;;;3.66;54.62;98844.41;5031363;28;20056;-46
2023/02/15 06:56:11;;;;;;;48.43;22.70;;;0.00;99.90;;;3.68;54.72;98845.19;5031866;28;20056;-49
2023/02/15 06:58:40;;;;;;;35.70;16.53;;;0.00;99.90;;;3.69;54.40;98849.50;5031984;28;20049;-46
2023/02/15 07:01:09;;;;;;;34.13;13.93;;;0.10;99.90;;;3.72;54.32;98854.63;5031707;28;20515;-44
2023/02/15 07:03:36;;;;;;;32.40;12.03;;;0.10;99.90;;;3.72;54.32;98856.38;5029926;28;20090;-46
2023/02/15 07:06:08;;;;;;;49.03;14.27;;;0.00;99.90;;;3.65;54.07;98860.31;5028480;28;20033;-46
2023/02/15 07:08:37;;;;;;;45.87;12.23;;;-0.10;99.90;;;3.57;54.36;98854.63;5030977;28;20056;-46
2023/02/15 07:13:52;;;;;;;41.30;12.43;;;-0.20;99.90;;;3.52;54.60;98857.53;5030694;28;20060;-46
2023/02/15 07:16:20;;;;;;;28.23;11.27;;;-0.10;99.90;;;3.57;54.45;98862.53;5031042;28;20050;-46
2023/02/15 07:18:48;;;;;;;33.30;12.93;;;0.00;99.90;;;3.62;54.81;98860.47;5030221;28;20054;-47
2023/02/15 07:21:15;;;;;;;23.07;12.00;;;0.00;99.90;;;3.62;54.67;98857.84;5031322;28;20045;-46
2023/02/15 07:23:43;;;;;;;35.63;13.20;;;0.00;99.90;;;3.68;55.10;98865.41;5030640;28;20042;-45
2023/02/15 07:26:10;;;;;;;31.50;13.77;;;0.10;99.90;;;3.69;54.60;98862.69;5031253;28;20504;-43
2023/02/15 07:28:38;;;;;;;22.10;11.23;;;0.10;99.90;;;3.71;54.55;98868.69;5030971;28;20037;-48
2023/02/15 07:31:06;;;;;;;27.60;12.27;;;0.10;99.90;;;3.72;54.83;98862.50;5030970;28;20049;-48
2023/02/15 07:33:34;;;;;;;24.23;11.93;;;0.10;99.90;;;3.75;54.89;98859.69;5026232;28;20045;-44
2023/02/15 07:36:04;;;;;;;21.30;12.50;;;0.10;99.90;;;3.79;54.79;98863.00;5030839;28;20049;-44
2023/02/15 07:38:36;;;;;;;32.47;12.80;;;0.20;99.90;;;3.84;54.80;98858.31;5029527;28;20425;-47
2023/02/15 07:41:11;;;;;;;62.27;16.93;;;0.20;99.90;;;3.87;54.62;98859.91;5023358;28;20053;-47
2023/02/15 07:43:42;;;;;;;25.53;13.47;;;0.30;99.90;;;3.94;54.92;98850.72;5029216;28;20072;-46
2023/02/15 07:46:14;;;;;;;18.63;12.00;;;0.30;99.90;;;3.94;54.85;98853.34;5030998;28;20050;-46
2023/02/15 07:48:43;;;;;;;26.73;12.57;;;0.30;99.90;;;3.95;54.81;98855.03;5030966;28;20501;-48
2023/02/15 07:51:12;;;;;;;27.37;12.00;;;0.40;99.90;;;3.93;54.41;98852.50;5029761;28;20478;-44
2023/02/15 07:53:40;;;;;;;23.60;12.20;;;0.40;99.90;;;3.96;54.59;98858.53;5028901;28;20053;-46
2023/02/15 07:56:12;;;;;;;40.30;13.00;;;0.40;99.90;;;4.02;54.85;98864.28;5029397;28;20057;-47
2023/02/15 07:58:52;;;;;;;58.07;12.37;;;0.40;99.90;;;4.03;54.54;98855.47;5029522;28;20053;-47
2023/02/15 08:01:40;;;;;;;20.10;10.97;;;0.50;99.90;;;3.97;54.67;98868.13;5029658;28;20546;-46
2023/02/15 08:04:10;;;;;;;21.47;10.97;;;0.40;99.90;;;4.01;54.22;98864.38;5022959;28;20037;-48
2023/02/15 08:06:38;;;;;;;26.33;10.47;;;0.30;99.90;;;4.03;54.31;98854.59;5030698;28;20414;-45
2023/02/15 08:09:08;;;;;;;26.60;10.80;;;0.30;99.90;;;3.96;54.36;98858.53;5030004;28;20040;-45
2023/02/15 08:11:39;;;;;;;38.67;10.50;;;0.20;99.90;;;3.90;54.56;98859.75;5029653;28;20050;-48
2023/02/15 08:14:11;;;;;;;24.23;12.50;;;0.10;99.90;;;3.94;54.39;98863.91;5030208;28;20042;-46
2023/02/15 08:16:51;;;;;;;27.33;12.63;;;0.20;99.90;;;3.97;54.92;98858.44;5030396;28;20069;-46
2023/02/15 08:19:31;;;;;;;33.43;10.13;;;0.30;99.90;;;4.02;54.41;98860.81;5029300;28;20041;-44
2023/02/15 08:22:03;;;;;;;34.37;11.67;;;0.30;99.90;;;4.03;54.33;98860.72;5030041;28;20045;-44
2023/02/15 08:24:36;;;;;;;31.13;11.17;;;0.30;99.90;;;4.04;54.45;98858.94;5030241;28;20050;-45
2023/02/15 08:27:07;;;;;;;24.93;10.57;;;0.40;99.90;;;4.05;54.67;98865.88;5021916;28;20041;-44
2023/02/15 08:29:36;;;;;;;38.07;12.37;;;0.40;99.90;;;4.07;54.55;98856.97;5016631;28;20050;-46
2023/02/15 08:32:08;;;;;;;33.50;12.27;;;0.40;99.90;;;4.08;54.67;98860.44;5043265;28;20049;-46
2023/02/15 08:34:40;;;;;;;31.23;13.77;;;0.40;99.90;;;4.09;54.64;98852.47;5029010;28;20510;-46
2023/02/15 08:37:09;;;;;;;21.23;12.47;;;0.40;99.90;;;4.14;55.22;98852.19;5029945;28;20049;-49
2023/02/15 08:39:36;;;;;;;29.40;15.83;;;0.50;99.90;;;4.23;55.11;98848.16;5028930;28;20053;-48
2023/02/15 08:42:04;;;;;;;26.70;12.07;;;0.60;99.90;;;4.31;55.28;98848.53;5043537;28;20049;-49
2023/02/15 08:44:31;;;;;;;15.67;10.00;;;0.70;99.90;;;4.34;54.84;98845.69;5027667;28;20049;-44
2023/02/15 08:47:04;;;;;;;16.87;9.87;;;0.70;99.90;;;4.38;54.74;98836.69;5027672;28;20052;-46
2023/02/15 08:49:33;;;;;;;25.92;13.85;;;0.70;99.90;;;4.42;54.91;98837.31;5027562;28;20053;-47
2023/02/15 08:52:00;;;;;;;34.50;12.60;;;0.70;99.90;;;4.49;54.81;98846.56;5028104;28;20154;-44
2023/02/15 08:54:28;;;;;;;25.10;12.80;;;0.80;99.90;;;4.52;54.80;98841.97;5028136;28;20056;-48
2023/02/15 08:56:56;;;;;;;48.17;14.33;;;0.80;99.90;;;4.57;54.97;98840.81;5027614;28;20527;-46
2023/02/15 08:59:26;;;;;;;30.70;12.33;;;0.80;99.90;;;4.59;54.36;98841.56;5041561;28;20041;-44
2023/02/15 09:01:55;;;;;;;25.70;12.37;;;0.80;99.90;;;4.62;54.48;98844.88;5025403;28;20057;-45
2023/02/15 09:04:23;;;;;;;33.00;12.20;;;0.90;99.90;;;4.62;54.69;98841.41;5027080;28;20045;-46
2023/02/15 09:06:51;;;;;;;22.93;12.37;;;0.80;99.90;;;4.66;54.50;98841.09;5026912;28;20034;-47
2023/02/15 09:09:20;;;;;;;19.90;10.23;;;0.90;99.90;;;4.70;54.38;98839.97;5027165;28;20049;-48
2023/02/15 09:11:50;;;;;;;34.50;12.67;;;0.90;99.90;;;4.74;54.52;98843.28;5028265;28;20049;-45
2023/02/15 09:14:26;;;;;;;29.70;10.60;;;1.00;99.90;;;4.68;54.20;98839.22;5028191;28;20037;-44
2023/02/15 09:16:54;;;;;;;22.27;11.00;;;0.90;99.90;;;4.70;54.25;98839.97;5028130;28;20055;-48
2023/02/15 09:19:23;;;;;;;23.07;13.40;;;0.90;99.90;;;4.76;54.48;98833.47;5026886;28;20060;-48
2023/02/15 09:21:51;;;;;;;39.97;10.93;;;1.00;99.90;;;4.80;54.71;98824.41;5027584;28;20037;-46
2023/02/15 09:24:19;;;;;;;17.57;12.00;;;1.10;99.90;;;4.81;54.48;98819.97;5027024;28;20064;-45
2023/02/15 09:26:48;;;;;;;16.67;9.60;;;1.10;99.90;;;4.83;54.14;98818.13;5027241;28;20060;-44
2023/02/15 09:29:17;;;;;;;25.23;12.20;;;1.10;99.90;;;4.85;54.02;98821.50;5025688;28;20300;-46
2023/02/15 09:31:49;;;;;;;16.67;10.60;;;1.10;99.90;;;4.86;53.93;98820.53;5025149;28;20060;-45
2023/02/15 09:34:21;;;;;;;16.67;10.77;;;1.10;99.90;;;4.87;54.72;98819.63;5027657;28;20041;-45
2023/02/15 09:36:50;;;;;;;17.60;10.53;;;1.10;99.90;;;4.93;54.66;98820.06;5026496;28;20065;-45
2023/02/15 09:39:27;;;;;;;16.77;9.43;;;1.20;99.90;;;4.97;54.27;98817.25;5026416;28;20042;-49
2023/02/15 09:42:52;;;;;;;19.70;11.33;;;1.20;99.90;;;4.98;54.60;98818.91;5025899;28;20048;-45
2023/02/15 09:45:50;;;;;;;24.60;10.70;;;1.30;99.90;;;5.01;54.31;98806.38;4983759;28;20050;-45
2023/02/15 09:48:42;;;;;;;57.30;13.23;;;1.40;99.90;;;5.08;54.52;98804.22;5041397;28;20042;-45
2023/02/15 09:51:26;;;;;;;15.17;9.63;;;1.40;99.90;;;5.13;53.93;98812.66;5026443;28;20056;-46
2023/02/15 09:54:08;;;;;;;17.13;10.07;;;1.40;99.90;;;5.16;54.54;98804.56;5022037;28;20046;-44
2023/02/15 09:57:31;;;;;;;19.77;11.20;;;1.40;99.90;;;5.11;54.31;98804.84;5020245;28;20053;-48
2023/02/15 10:00:24;;;;;;;12.43;9.23;;;1.40;99.90;;;5.22;53.90;98800.69;4997796;28;20065;-46
2023/02/15 10:03:17;;;;;;;14.87;9.40;;;1.50;99.90;;;5.31;53.91;98802.69;5026689;28;20045;-44
2023/02/15 10:06:15;;;;;;;45.13;11.00;;;1.60;99.90;;;5.34;53.49;98802.50;5024741;28;20049;-45
2023/02/15 10:09:18;;;;;;;18.97;11.20;;;1.60;99.90;;;5.32;54.46;98793.84;5018820;28;20052;-44
2023/02/15 10:12:10;;;;;;;34.07;13.67;;;1.70;99.90;;;5.39;53.60;98796.91;5017959;28;20065;-45
2023/02/15 10:14:55;;;;;;;31.00;13.53;;;1.70;99.90;;;5.41;54.07;98802.94;5024416;28;20057;-44
2023/02/15 10:18:10;;;;;;;27.30;13.63;;;1.70;99.90;;;5.40;53.94;98806.56;5026725;28;20053;-49
2023/02/15 10:20:56;;;;;;;23.20;12.43;;;1.80;99.90;;;5.47;53.93;98802.56;5023561;28;20064;-48
2023/02/15 10:23:29;;;;;;;21.97;11.07;;;1.80;99.90;;;5.55;54.35;98800.25;5024109;28;20408;-47
2023/02/15 10:26:17;;;;;;;19.75;11.13;;;1.90;99.90;;;5.58;53.92;98800.03;5024640;28;20041;-46
2023/02/15 10:29:07;;;;;;;17.70;10.60;;;1.90;99.90;;;5.62;53.85;98798.06;5025435;28;20045;-46
2023/02/15 10:32:07;;;;;;;15.47;10.27;;;1.90;99.90;;;5.61;53.85;98799.00;5023747;28;20524;-45
2023/02/15 10:35:01;;;;;;;21.13;10.80;;;2.00;99.90;;;5.66;54.33;98800.41;5026096;28;20048;-46
2023/02/15 10:37:45;;;;;;;18.55;10.43;;;2.00;99.90;;;5.71;54.14;98798.28;5022065;28;20049;-47
2023/02/15 10:40:48;;;;;;;17.52;12.52;;;2.00;99.90;;;5.75;54.63;98792.81;5026455;28;20049;-44
2023/02/15 10:43:15;;;;;;;19.97;12.00;;;2.10;99.90;;;5.85;53.92;98788.59;5026058;28;20049;-44
2023/02/15 10:46:26;;;;;;;19.07;11.70;;;2.20;99.90;;;5.79;53.92;98783.72;5027891;28;20269;-47
2023/02/15 10:49:21;;;;;;;18.27;11.93;;;2.20;99.90;;;5.86;53.75;98782.38;5026149;28;20064;-44
2023/02/15 10:52:22;;;;;;;17.53;10.90;;;2.20;99.90;;;5.91;54.38;98788.16;5025575;28;20046;-47
2023/02/15 10:55:23;;;;;;;19.70;11.70;;;2.30;99.90;;;5.93;54.50;98788.91;5025831;28;20056;-46
2023/02/15 10:58:06;;;;;;;20.93;11.27;;;2.40;99.90;;;6.01;53.79;98788.41;5027085;28;20413;-44
2023/02/15 11:01:13;;;;;;;15.40;10.83;;;2.40;99.90;;;6.08;54.50;98784.41;5027147;28;20049;-48
2023/02/15 11:03:52;;;;;;;23.90;13.70;;;2.60;99.90;;;6.19;54.47;98779.25;5021948;28;20073;-44
2023/02/15 11:06:22;;;;;;;17.13;12.00;;;2.60;99.90;;;6.30;53.40;98778.47;5024425;28;20060;-46
2023/02/15 11:09:10;;;;;;;20.13;12.43;;;2.70;99.90;;;6.37;54.82;98779.75;5023346;28;20184;-44
2023/02/15 11:11:42;;;;;;;21.43;13.17;;;2.80;99.90;;;6.49;54.23;98772.75;5025284;28;20045;-45
2023/02/15 11:15:14;;;;;;;19.33;12.43;;;2.90;99.90;;;6.56;54.37;98768.75;5024171;28;20052;-45
2023/02/15 11:18:29;;;;;;;21.97;12.97;;;3.10;99.90;;;6.70;53.80;98767.75;4980132;28;20551;-43